sensor_id;sensor_type;location;lat;lon;timestamp;temperature;humidity
42907;DHT22;28552;51.146;6.576;2023-11-21T00:01:30;8.00;99.90
42907;DHT22;28552;51.146;6.576;2023-11-21T00:04:30;8.00;99.90
42907;DHT22;28552;51.146;6.576;2023-11-21T00:07:31;8.00;99.90
42907;DHT22;28552;51.146;6.576;2023-11-21T00:10:31;7.90;99.90
42907;DHT22;28552;51.146;6.576;2023-11-21T00:13:32;7.90;99.90
42907;DHT22;28552;51.146;6.576;2023-11-21T00:16:33;7.90;99.90
42907;DHT22;28552;51.146;6.576;2023-11-21T00:19:34;7.90;99.90
42907;DHT22;28552;51.146;6.576;2023-11-21T00:22:35;7.80;99.90
42907;DHT22;28552;51.146;6.576;2023-11-21T00:25:36;7.70;99.90
42907;DHT22;28552;51.146;6.576;2023-11-21T00:28:37;7.70;99.90
42907;DHT22;28552;51.146;6.576;2023-11-21T00:31:37;7.60;99.90
42907;DHT22;28552;51.146;6.576;2023-11-21T00:34:39;7.60;99.90
42907;DHT22;28552;51.146;6.576;2023-11-21T00:37:40;7.50;99.90
42907;DHT22;28552;51.146;6.576;2023-11-21T00:40:40;7.50;99.90
42907;DHT22;28552;51.146;6.576;2023-11-21T00:43:41;7.40;99.90
42907;DHT22;28552;51.146;6.576;2023-11-21T00:46:42;7.40;99.90
42907;DHT22;28552;51.146;6.576;2023-11-21T00:49:42;7.30;99.90
42907;DHT22;28552;51.146;6.576;2023-11-21T00:52:43;7.30;99.90
42907;DHT22;28552;51.146;6.576;2023-11-21T00:55:44;7.20;99.90
42907;DHT22;28552;51.146;6.576;2023-11-21T00:58:45;7.20;99.90
42907;DHT22;28552;51.146;6.576;2023-11-21T01:01:50;7.10;99.90
42907;DHT22;28552;51.146;6.576;2023-11-21T01:04:50;7.10;99.90
42907;DHT22;28552;51.146;6.576;2023-11-21T01:07:51;7.00;99.90
42907;DHT22;28552;51.146;6.576;2023-11-21T01:10:51;7.00;99.90
42907;DHT22;28552;51.146;6.576;2023-11-21T01:13:52;7.00;99.90
42907;DHT22;28552;51.146;6.576;2023-11-21T01:16:53;7.10;99.90
42907;DHT22;28552;51.146;6.576;2023-11-21T01:19:54;7.10;99.90
42907;DHT22;28552;51.146;6.576;2023-11-21T01:22:54;7.20;99.90
42907;DHT22;28552;51.146;6.576;2023-11-21T01:25:56;7.20;99.90
42907;DHT22;28552;51.146;6.576;2023-11-21T01:28:57;7.20;99.90
42907;DHT22;28552;51.146;6.576;2023-11-21T01:31:57;7.20;99.90
42907;DHT22;28552;51.146;6.576;2023-11-21T01:34:59;7.20;99.90
42907;DHT22;28552;51.146;6.576;2023-11-21T01:37:59;7.20;99.90
42907;DHT22;28552;51.146;6.576;2023-11-21T01:41:00;7.10;99.90
42907;DHT22;28552;51.146;6.576;2023-11-21T01:44:01;7.10;99.90
42907;DHT22;28552;51.146;6.576;2023-11-21T01:47:02;7.10;99.90
42907;DHT22;28552;51.146;6.576;2023-11-21T01:50:08;7.10;99.90
42907;DHT22;28552;51.146;6.576;2023-11-21T01:53:10;7.30;99.90
42907;DHT22;28552;51.146;6.576;2023-11-21T01:56:12;7.40;99.90
42907;DHT22;28552;51.146;6.576;2023-11-21T01:59:18;7.40;99.90
42907;DHT22;28552;51.146;6.576;2023-11-21T02:02:20;7.40;99.90
42907;DHT22;28552;51.146;6.576;2023-11-21T02:05:20;7.40;99.90
42907;DHT22;28552;51.146;6.576;2023-11-21T02:08:21;7.40;99.90
42907;DHT22;28552;51.146;6.576;2023-11-21T02:11:22;7.40;99.90
42907;DHT22;28552;51.146;6.576;2023-11-21T02:14:22;7.40;99.90
42907;DHT22;28552;51.146;6.576;2023-11-21T02:17:23;7.50;99.90
42907;DHT22;28552;51.146;6.576;2023-11-21T02:20:24;7.50;99.90
42907;DHT22;28552;51.146;6.576;2023-11-21T02:23:26;7.50;99.90
42907;DHT22;28552;51.146;6.576;2023-11-21T02:26:29;7.60;99.90
42907;DHT22;28552;51.146;6.576;2023-11-21T02:29:29;7.60;99.90
42907;DHT22;28552;51.146;6.576;2023-11-21T02:32:30;7.60;99.90
42907;DHT22;28552;51.146;6.576;2023-11-21T02:35:31;7.60;99.90
42907;DHT22;28552;51.146;6.576;2023-11-21T02:38:32;7.60;99.90
42907;DHT22;28552;51.146;6.576;2023-11-21T02:41:32;7.60;99.90
42907;DHT22;28552;51.146;6.576;2023-11-21T02:44:34;7.60;99.90
42907;DHT22;28552;51.146;6.576;2023-11-21T02:47:35;7.60;99.90
42907;DHT22;28552;51.146;6.576;2023-11-21T02:50:35;7.60;99.90
42907;DHT22;28552;51.146;6.576;2023-11-21T02:53:36;7.60;99.90
42907;DHT22;28552;51.146;6.576;2023-11-21T02:56:39;7.60;99.90
42907;DHT22;28552;51.146;6.576;2023-11-21T02:59:40;7.60;99.90
42907;DHT22;28552;51.146;6.576;2023-11-21T03:02:41;7.60;99.90
42907;DHT22;28552;51.146;6.576;2023-11-21T03:05:41;7.70;99.90
42907;DHT22;28552;51.146;6.576;2023-11-21T03:08:42;7.70;99.90
42907;DHT22;28552;51.146;6.576;2023-11-21T03:11:42;7.70;99.90
42907;DHT22;28552;51.146;6.576;2023-11-21T03:14:43;7.70;99.90
42907;DHT22;28552;51.146;6.576;2023-11-21T03:17:43;7.70;99.90
42907;DHT22;28552;51.146;6.576;2023-11-21T03:20:44;7.70;99.90
42907;DHT22;28552;51.146;6.576;2023-11-21T03:23:46;7.60;99.90
42907;DHT22;28552;51.146;6.576;2023-11-21T03:26:47;7.60;99.90
42907;DHT22;28552;51.146;6.576;2023-11-21T03:29:48;7.60;99.90
42907;DHT22;28552;51.146;6.576;2023-11-21T03:32:49;7.60;99.90
42907;DHT22;28552;51.146;6.576;2023-11-21T03:35:50;7.60;99.90
42907;DHT22;28552;51.146;6.576;2023-11-21T03:38:50;7.60;99.90
42907;DHT22;28552;51.146;6.576;2023-11-21T03:41:51;7.60;99.90
42907;DHT22;28552;51.146;6.576;2023-11-21T03:44:52;7.60;99.90
42907;DHT22;28552;51.146;6.576;2023-11-21T03:47:53;7.50;99.90
42907;DHT22;28552;51.146;6.576;2023-11-21T03:50:53;7.60;99.90
42907;DHT22;28552;51.146;6.576;2023-11-21T03:53:54;7.60;99.90
42907;DHT22;28552;51.146;6.576;2023-11-21T03:56:54;7.60;99.90
42907;DHT22;28552;51.146;6.576;2023-11-21T03:59:55;7.60;99.90
42907;DHT22;28552;51.146;6.576;2023-11-21T04:02:55;7.60;99.90
42907;DHT22;28552;51.146;6.576;2023-11-21T04:05:56;7.60;99.90
42907;DHT22;28552;51.146;6.576;2023-11-21T04:08:57;7.60;99.90
42907;DHT22;28552;51.146;6.576;2023-11-21T04:11:57;7.60;99.90
42907;DHT22;28552;51.146;6.576;2023-11-21T04:14:58;7.70;99.90
42907;DHT22;28552;51.146;6.576;2023-11-21T04:17:58;7.70;99.90
42907;DHT22;28552;51.146;6.576;2023-11-21T04:20:59;7.70;99.90
42907;DHT22;28552;51.146;6.576;2023-11-21T04:24:00;7.70;99.90
42907;DHT22;28552;51.146;6.576;2023-11-21T04:27:00;7.70;99.90
42907;DHT22;28552;51.146;6.576;2023-11-21T04:30:01;7.70;99.90
42907;DHT22;28552;51.146;6.576;2023-11-21T04:33:01;7.70;99.90
42907;DHT22;28552;51.146;6.576;2023-11-21T04:36:03;7.80;99.90
42907;DHT22;28552;51.146;6.576;2023-11-21T04:39:04;7.70;99.90
42907;DHT22;28552;51.146;6.576;2023-11-21T04:42:05;7.70;99.90
42907;DHT22;28552;51.146;6.576;2023-11-21T04:45:06;7.70;99.90
42907;DHT22;28552;51.146;6.576;2023-11-21T04:48:11;7.80;99.90
42907;DHT22;28552;51.146;6.576;2023-11-21T04:51:12;7.70;99.90
42907;DHT22;28552;51.146;6.576;2023-11-21T04:54:13;7.70;99.90
42907;DHT22;28552;51.146;6.576;2023-11-21T04:57:13;7.70;99.90
42907;DHT22;28552;51.146;6.576;2023-11-21T05:00:14;7.60;99.90
42907;DHT22;28552;51.146;6.576;2023-11-21T05:03:16;7.60;99.90
42907;DHT22;28552;51.146;6.576;2023-11-21T05:06:16;7.60;99.90
42907;DHT22;28552;51.146;6.576;2023-11-21T05:09:17;7.60;99.90
42907;DHT22;28552;51.146;6.576;2023-11-21T05:12:18;7.60;99.90
42907;DHT22;28552;51.146;6.576;2023-11-21T05:15:18;7.60;99.90
42907;DHT22;28552;51.146;6.576;2023-11-21T05:18:19;7.70;99.90
42907;DHT22;28552;51.146;6.576;2023-11-21T05:21:19;7.70;99.90
42907;DHT22;28552;51.146;6.576;2023-11-21T05:24:21;7.70;99.90
42907;DHT22;28552;51.146;6.576;2023-11-21T05:27:21;7.70;99.90
42907;DHT22;28552;51.146;6.576;2023-11-21T05:30:22;7.70;99.90
42907;DHT22;28552;51.146;6.576;2023-11-21T05:33:22;7.70;99.90
42907;DHT22;28552;51.146;6.576;2023-11-21T05:36:23;7.80;99.90
42907;DHT22;28552;51.146;6.576;2023-11-21T05:39:23;7.70;99.90
42907;DHT22;28552;51.146;6.576;2023-11-21T05:42:24;7.70;99.90
42907;DHT22;28552;51.146;6.576;2023-11-21T05:45:25;7.70;99.90
42907;DHT22;28552;51.146;6.576;2023-11-21T05:48:26;7.80;99.90
42907;DHT22;28552;51.146;6.576;2023-11-21T05:51:27;7.80;99.90
42907;DHT22;28552;51.146;6.576;2023-11-21T05:54:27;7.80;99.90
42907;DHT22;28552;51.146;6.576;2023-11-21T05:57:28;7.80;99.90
42907;DHT22;28552;51.146;6.576;2023-11-21T06:00:29;7.70;99.90
42907;DHT22;28552;51.146;6.576;2023-11-21T06:03:29;7.70;99.90
42907;DHT22;28552;51.146;6.576;2023-11-21T06:06:30;7.80;99.90
42907;DHT22;28552;51.146;6.576;2023-11-21T06:09:31;7.80;99.90
42907;DHT22;28552;51.146;6.576;2023-11-21T06:12:32;7.80;99.90
42907;DHT22;28552;51.146;6.576;2023-11-21T06:15:35;7.80;99.90
42907;DHT22;28552;51.146;6.576;2023-11-21T06:18:36;7.70;99.90
42907;DHT22;28552;51.146;6.576;2023-11-21T06:21:37;7.70;99.90
42907;DHT22;28552;51.146;6.576;2023-11-21T06:24:37;7.70;99.90
42907;DHT22;28552;51.146;6.576;2023-11-21T06:27:39;7.70;99.90
42907;DHT22;28552;51.146;6.576;2023-11-21T06:30:40;7.70;99.90
42907;DHT22;28552;51.146;6.576;2023-11-21T06:33:42;7.70;99.90
42907;DHT22;28552;51.146;6.576;2023-11-21T06:36:43;7.60;99.90
42907;DHT22;28552;51.146;6.576;2023-11-21T06:39:43;7.60;99.90
42907;DHT22;28552;51.146;6.576;2023-11-21T06:42:44;7.60;99.90
42907;DHT22;28552;51.146;6.576;2023-11-21T06:45:45;7.60;99.90
42907;DHT22;28552;51.146;6.576;2023-11-21T06:48:45;7.60;99.90
42907;DHT22;28552;51.146;6.576;2023-11-21T06:51:46;7.60;99.90
42907;DHT22;28552;51.146;6.576;2023-11-21T06:54:47;7.60;99.90
42907;DHT22;28552;51.146;6.576;2023-11-21T06:57:48;7.50;99.90
42907;DHT22;28552;51.146;6.576;2023-11-21T07:00:48;7.50;99.90
42907;DHT22;28552;51.146;6.576;2023-11-21T07:03:50;7.50;99.90
42907;DHT22;28552;51.146;6.576;2023-11-21T07:06:54;7.60;99.90
42907;DHT22;28552;51.146;6.576;2023-11-21T07:09:54;7.60;99.90
42907;DHT22;28552;51.146;6.576;2023-11-21T07:12:55;7.60;99.90
42907;DHT22;28552;51.146;6.576;2023-11-21T07:15:58;7.60;99.90
42907;DHT22;28552;51.146;6.576;2023-11-21T07:18:59;7.60;99.90
42907;DHT22;28552;51.146;6.576;2023-11-21T07:22:00;7.70;99.90
42907;DHT22;28552;51.146;6.576;2023-11-21T07:25:00;7.70;99.90
42907;DHT22;28552;51.146;6.576;2023-11-21T07:28:01;7.80;99.90
42907;DHT22;28552;51.146;6.576;2023-11-21T07:31:01;7.90;99.90
42907;DHT22;28552;51.146;6.576;2023-11-21T07:34:03;7.90;99.90
42907;DHT22;28552;51.146;6.576;2023-11-21T07:37:04;8.00;99.90
42907;DHT22;28552;51.146;6.576;2023-11-21T07:40:05;8.00;99.90
42907;DHT22;28552;51.146;6.576;2023-11-21T07:43:06;8.00;99.90
42907;DHT22;28552;51.146;6.576;2023-11-21T07:46:06;8.00;99.90
42907;DHT22;28552;51.146;6.576;2023-11-21T07:49:08;8.00;99.90
42907;DHT22;28552;51.146;6.576;2023-11-21T07:52:10;8.00;99.90
42907;DHT22;28552;51.146;6.576;2023-11-21T07:55:10;8.00;99.90
42907;DHT22;28552;51.146;6.576;2023-11-21T07:58:11;8.00;99.90
42907;DHT22;28552;51.146;6.576;2023-11-21T08:01:13;8.10;99.90
42907;DHT22;28552;51.146;6.576;2023-11-21T08:04:14;8.10;99.90
42907;DHT22;28552;51.146;6.576;2023-11-21T08:07:15;8.10;99.90
42907;DHT22;28552;51.146;6.576;2023-11-21T08:10:15;8.10;99.90
42907;DHT22;28552;51.146;6.576;2023-11-21T08:13:17;8.10;99.90
42907;DHT22;28552;51.146;6.576;2023-11-21T08:16:18;8.20;99.90
42907;DHT22;28552;51.146;6.576;2023-11-21T08:19:18;8.20;99.90
42907;DHT22;28552;51.146;6.576;2023-11-21T08:22:19;8.20;99.90
42907;DHT22;28552;51.146;6.576;2023-11-21T08:25:20;8.20;99.90
42907;DHT22;28552;51.146;6.576;2023-11-21T08:28:21;8.30;99.90
42907;DHT22;28552;51.146;6.576;2023-11-21T08:31:26;8.40;99.90
42907;DHT22;28552;51.146;6.576;2023-11-21T08:34:27;8.50;99.90
42907;DHT22;28552;51.146;6.576;2023-11-21T08:37:28;8.60;99.90
42907;DHT22;28552;51.146;6.576;2023-11-21T08:40:30;8.70;99.90
42907;DHT22;28552;51.146;6.576;2023-11-21T08:43:31;8.80;99.90
42907;DHT22;28552;51.146;6.576;2023-11-21T08:46:31;8.80;99.90
42907;DHT22;28552;51.146;6.576;2023-11-21T08:49:32;8.80;99.90
42907;DHT22;28552;51.146;6.576;2023-11-21T08:52:33;8.70;99.90
42907;DHT22;28552;51.146;6.576;2023-11-21T08:55:33;8.70;99.90
42907;DHT22;28552;51.146;6.576;2023-11-21T08:58:37;8.70;99.90
42907;DHT22;28552;51.146;6.576;2023-11-21T09:01:38;8.70;99.90
42907;DHT22;28552;51.146;6.576;2023-11-21T09:04:38;8.80;99.90
42907;DHT22;28552;51.146;6.576;2023-11-21T09:07:40;8.80;99.90
42907;DHT22;28552;51.146;6.576;2023-11-21T09:10:41;9.00;99.90
42907;DHT22;28552;51.146;6.576;2023-11-21T09:13:43;9.10;99.90
42907;DHT22;28552;51.146;6.576;2023-11-21T09:16:44;9.10;99.90
42907;DHT22;28552;51.146;6.576;2023-11-21T09:19:44;9.20;99.90
42907;DHT22;28552;51.146;6.576;2023-11-21T09:22:47;9.20;99.90
42907;DHT22;28552;51.146;6.576;2023-11-21T09:25:48;9.20;99.90
42907;DHT22;28552;51.146;6.576;2023-11-21T09:28:50;9.20;99.90
42907;DHT22;28552;51.146;6.576;2023-11-21T09:31:50;9.30;99.90
42907;DHT22;28552;51.146;6.576;2023-11-21T09:34:52;9.30;99.90
42907;DHT22;28552;51.146;6.576;2023-11-21T09:37:54;9.30;99.90
42907;DHT22;28552;51.146;6.576;2023-11-21T09:40:56;9.40;99.90
42907;DHT22;28552;51.146;6.576;2023-11-21T09:43:58;9.40;99.90
42907;DHT22;28552;51.146;6.576;2023-11-21T09:47:02;9.50;99.90
42907;DHT22;28552;51.146;6.576;2023-11-21T09:50:05;9.60;99.90
42907;DHT22;28552;51.146;6.576;2023-11-21T09:56:16;9.80;99.90
42907;DHT22;28552;51.146;6.576;2023-11-21T09:59:24;9.80;99.90
42907;DHT22;28552;51.146;6.576;2023-11-21T10:02:27;9.90;99.90
42907;DHT22;28552;51.146;6.576;2023-11-21T10:05:31;9.90;99.90
42907;DHT22;28552;51.146;6.576;2023-11-21T10:08:35;9.90;99.90
42907;DHT22;28552;51.146;6.576;2023-11-21T10:11:40;9.90;99.90
42907;DHT22;28552;51.146;6.576;2023-11-21T10:14:41;9.90;99.90
42907;DHT22;28552;51.146;6.576;2023-11-21T10:17:44;9.80;99.90
42907;DHT22;28552;51.146;6.576;2023-11-21T10:20:46;9.80;99.90
42907;DHT22;28552;51.146;6.576;2023-11-21T10:23:53;9.80;99.90
42907;DHT22;28552;51.146;6.576;2023-11-21T10:26:54;9.90;99.90
42907;DHT22;28552;51.146;6.576;2023-11-21T10:29:54;9.90;99.90
42907;DHT22;28552;51.146;6.576;2023-11-21T10:32:59;10.00;99.90
42907;DHT22;28552;51.146;6.576;2023-11-21T10:36:02;10.00;99.90
42907;DHT22;28552;51.146;6.576;2023-11-21T10:39:03;10.00;99.90
42907;DHT22;28552;51.146;6.576;2023-11-21T10:42:04;10.00;99.90
42907;DHT22;28552;51.146;6.576;2023-11-21T10:45:05;10.00;99.90
42907;DHT22;28552;51.146;6.576;2023-11-21T10:48:14;9.90;99.90
42907;DHT22;28552;51.146;6.576;2023-11-21T10:51:15;9.90;99.90
42907;DHT22;28552;51.146;6.576;2023-11-21T10:54:19;10.00;99.90
42907;DHT22;28552;51.146;6.576;2023-11-21T10:57:21;10.10;99.90
42907;DHT22;28552;51.146;6.576;2023-11-21T11:00:24;10.20;99.90
42907;DHT22;28552;51.146;6.576;2023-11-21T11:03:27;10.20;99.90
42907;DHT22;28552;51.146;6.576;2023-11-21T11:06:28;10.20;99.90
42907;DHT22;28552;51.146;6.576;2023-11-21T11:09:31;10.10;99.90
42907;DHT22;28552;51.146;6.576;2023-11-21T11:12:34;10.10;99.90
42907;DHT22;28552;51.146;6.576;2023-11-21T11:15:35;10.10;99.90
42907;DHT22;28552;51.146;6.576;2023-11-21T11:18:36;10.10;99.90
42907;DHT22;28552;51.146;6.576;2023-11-21T11:21:46;10.20;99.90
42907;DHT22;28552;51.146;6.576;2023-11-21T11:28:30;10.30;99.90
42907;DHT22;28552;51.146;6.576;2023-11-21T11:35:11;10.20;99.90
42907;DHT22;28552;51.146;6.576;2023-11-21T11:38:17;10.20;99.90
42907;DHT22;28552;51.146;6.576;2023-11-21T11:41:26;10.10;99.90
42907;DHT22;28552;51.146;6.576;2023-11-21T11:47:56;10.10;99.90
42907;DHT22;28552;51.146;6.576;2023-11-21T11:54:05;10.20;99.90
42907;DHT22;28552;51.146;6.576;2023-11-21T11:57:07;10.40;99.90
42907;DHT22;28552;51.146;6.576;2023-11-21T12:00:17;10.50;99.90
42907;DHT22;28552;51.146;6.576;2023-11-21T12:03:20;10.60;99.90
42907;DHT22;28552;51.146;6.576;2023-11-21T12:06:34;10.60;99.90
42907;DHT22;28552;51.146;6.576;2023-11-21T12:09:36;10.70;99.90
42907;DHT22;28552;51.146;6.576;2023-11-21T12:12:37;10.70;99.90
42907;DHT22;28552;51.146;6.576;2023-11-21T12:15:39;10.70;99.90
42907;DHT22;28552;51.146;6.576;2023-11-21T12:18:41;10.70;99.90
42907;DHT22;28552;51.146;6.576;2023-11-21T12:21:42;10.70;99.90
42907;DHT22;28552;51.146;6.576;2023-11-21T12:24:43;10.70;99.90
42907;DHT22;28552;51.146;6.576;2023-11-21T12:27:43;10.70;99.90
42907;DHT22;28552;51.146;6.576;2023-11-21T12:30:45;10.80;99.90
42907;DHT22;28552;51.146;6.576;2023-11-21T12:33:46;10.80;99.90
42907;DHT22;28552;51.146;6.576;2023-11-21T12:36:47;10.80;99.90
42907;DHT22;28552;51.146;6.576;2023-11-21T12:39:49;10.90;99.90
42907;DHT22;28552;51.146;6.576;2023-11-21T12:42:53;10.90;99.90
42907;DHT22;28552;51.146;6.576;2023-11-21T12:46:10;10.90;99.90
42907;DHT22;28552;51.146;6.576;2023-11-21T12:49:11;10.80;99.90
42907;DHT22;28552;51.146;6.576;2023-11-21T12:52:17;10.70;99.90
42907;DHT22;28552;51.146;6.576;2023-11-21T12:55:19;10.60;99.90
42907;DHT22;28552;51.146;6.576;2023-11-21T12:58:23;10.60;99.90
42907;DHT22;28552;51.146;6.576;2023-11-21T13:01:26;10.50;99.90
42907;DHT22;28552;51.146;6.576;2023-11-21T13:04:32;10.60;99.90
42907;DHT22;28552;51.146;6.576;2023-11-21T13:07:42;10.60;99.90
42907;DHT22;28552;51.146;6.576;2023-11-21T13:10:49;10.60;99.90
42907;DHT22;28552;51.146;6.576;2023-11-21T13:13:51;10.60;99.90
42907;DHT22;28552;51.146;6.576;2023-11-21T13:16:53;10.60;99.90
42907;DHT22;28552;51.146;6.576;2023-11-21T13:19:54;10.60;99.90
42907;DHT22;28552;51.146;6.576;2023-11-21T13:22:56;10.60;99.90
42907;DHT22;28552;51.146;6.576;2023-11-21T13:25:59;10.60;99.90
42907;DHT22;28552;51.146;6.576;2023-11-21T13:29:04;10.60;99.90
42907;DHT22;28552;51.146;6.576;2023-11-21T13:32:05;10.50;99.90
42907;DHT22;28552;51.146;6.576;2023-11-21T13:35:07;10.40;99.90
42907;DHT22;28552;51.146;6.576;2023-11-21T13:38:10;10.40;99.90
42907;DHT22;28552;51.146;6.576;2023-11-21T13:41:11;10.40;99.90
42907;DHT22;28552;51.146;6.576;2023-11-21T13:44:14;10.40;99.90
42907;DHT22;28552;51.146;6.576;2023-11-21T13:47:17;10.30;99.90
42907;DHT22;28552;51.146;6.576;2023-11-21T13:50:19;10.30;99.90
42907;DHT22;28552;51.146;6.576;2023-11-21T13:53:24;10.30;99.90
42907;DHT22;28552;51.146;6.576;2023-11-21T13:56:25;10.40;99.90
42907;DHT22;28552;51.146;6.576;2023-11-21T13:59:28;10.40;99.90
42907;DHT22;28552;51.146;6.576;2023-11-21T14:02:30;10.40;99.90
42907;DHT22;28552;51.146;6.576;2023-11-21T14:05:38;10.30;99.90
42907;DHT22;28552;51.146;6.576;2023-11-21T14:08:41;10.30;99.90
42907;DHT22;28552;51.146;6.576;2023-11-21T14:11:41;10.30;99.90
42907;DHT22;28552;51.146;6.576;2023-11-21T14:14:42;10.30;99.90
42907;DHT22;28552;51.146;6.576;2023-11-21T14:17:45;10.20;99.90
42907;DHT22;28552;51.146;6.576;2023-11-21T14:20:45;10.30;99.90
42907;DHT22;28552;51.146;6.576;2023-11-21T14:23:46;10.20;99.90
42907;DHT22;28552;51.146;6.576;2023-11-21T14:26:47;10.20;99.90
42907;DHT22;28552;51.146;6.576;2023-11-21T14:29:48;10.20;99.90
42907;DHT22;28552;51.146;6.576;2023-11-21T14:32:49;10.20;99.90
42907;DHT22;28552;51.146;6.576;2023-11-21T14:35:49;10.20;99.90
42907;DHT22;28552;51.146;6.576;2023-11-21T14:38:50;10.10;99.90
42907;DHT22;28552;51.146;6.576;2023-11-21T14:41:51;10.10;99.90
42907;DHT22;28552;51.146;6.576;2023-11-21T14:44:54;10.00;99.90
42907;DHT22;28552;51.146;6.576;2023-11-21T14:48:01;9.90;99.90
42907;DHT22;28552;51.146;6.576;2023-11-21T14:51:16;9.90;99.90
42907;DHT22;28552;51.146;6.576;2023-11-21T14:54:32;9.80;99.90
42907;DHT22;28552;51.146;6.576;2023-11-21T14:57:47;9.70;99.90
42907;DHT22;28552;51.146;6.576;2023-11-21T15:00:53;9.60;99.90
42907;DHT22;28552;51.146;6.576;2023-11-21T15:03:58;9.60;99.90
42907;DHT22;28552;51.146;6.576;2023-11-21T15:06:58;9.60;99.90
42907;DHT22;28552;51.146;6.576;2023-11-21T15:09:59;9.60;99.90
42907;DHT22;28552;51.146;6.576;2023-11-21T15:13:00;9.50;99.90
42907;DHT22;28552;51.146;6.576;2023-11-21T15:16:03;9.50;99.90
42907;DHT22;28552;51.146;6.576;2023-11-21T15:19:08;9.50;99.90
42907;DHT22;28552;51.146;6.576;2023-11-21T15:22:10;9.50;99.90
42907;DHT22;28552;51.146;6.576;2023-11-21T15:25:13;9.40;99.90
42907;DHT22;28552;51.146;6.576;2023-11-21T15:28:14;9.40;99.90
42907;DHT22;28552;51.146;6.576;2023-11-21T15:31:14;9.40;99.90
42907;DHT22;28552;51.146;6.576;2023-11-21T15:34:18;9.30;99.90
42907;DHT22;28552;51.146;6.576;2023-11-21T15:37:18;9.30;99.90
42907;DHT22;28552;51.146;6.576;2023-11-21T15:40:19;9.30;99.90
42907;DHT22;28552;51.146;6.576;2023-11-21T15:43:20;9.30;99.90
42907;DHT22;28552;51.146;6.576;2023-11-21T15:46:20;9.30;99.90
42907;DHT22;28552;51.146;6.576;2023-11-21T15:49:21;9.30;99.90
42907;DHT22;28552;51.146;6.576;2023-11-21T15:52:22;9.30;99.90
42907;DHT22;28552;51.146;6.576;2023-11-21T15:55:23;9.30;99.90
42907;DHT22;28552;51.146;6.576;2023-11-21T15:58:24;9.30;99.90
42907;DHT22;28552;51.146;6.576;2023-11-21T16:01:26;9.20;99.90
42907;DHT22;28552;51.146;6.576;2023-11-21T16:04:27;9.30;99.90
42907;DHT22;28552;51.146;6.576;2023-11-21T16:07:28;9.30;99.90
42907;DHT22;28552;51.146;6.576;2023-11-21T16:10:28;9.20;99.90
42907;DHT22;28552;51.146;6.576;2023-11-21T16:13:29;9.30;99.90
42907;DHT22;28552;51.146;6.576;2023-11-21T16:16:30;9.20;99.90
42907;DHT22;28552;51.146;6.576;2023-11-21T16:19:30;9.30;99.90
42907;DHT22;28552;51.146;6.576;2023-11-21T16:22:31;9.20;99.90
42907;DHT22;28552;51.146;6.576;2023-11-21T16:25:34;9.20;99.90
42907;DHT22;28552;51.146;6.576;2023-11-21T16:28:35;9.20;99.90
42907;DHT22;28552;51.146;6.576;2023-11-21T16:31:36;9.20;99.90
42907;DHT22;28552;51.146;6.576;2023-11-21T16:34:36;9.20;99.90
42907;DHT22;28552;51.146;6.576;2023-11-21T16:37:37;9.20;99.90
42907;DHT22;28552;51.146;6.576;2023-11-21T16:40:37;9.10;99.90
42907;DHT22;28552;51.146;6.576;2023-11-21T16:43:38;9.10;99.90
42907;DHT22;28552;51.146;6.576;2023-11-21T16:46:38;9.00;99.90
42907;DHT22;28552;51.146;6.576;2023-11-21T16:49:39;9.10;99.90
42907;DHT22;28552;51.146;6.576;2023-11-21T16:52:42;9.00;99.90
42907;DHT22;28552;51.146;6.576;2023-11-21T16:55:43;9.00;99.90
42907;DHT22;28552;51.146;6.576;2023-11-21T16:58:44;9.00;99.90
42907;DHT22;28552;51.146;6.576;2023-11-21T17:01:45;8.90;99.90
42907;DHT22;28552;51.146;6.576;2023-11-21T17:04:46;8.90;99.90
42907;DHT22;28552;51.146;6.576;2023-11-21T17:07:49;8.90;99.90
42907;DHT22;28552;51.146;6.576;2023-11-21T17:10:49;8.90;99.90
42907;DHT22;28552;51.146;6.576;2023-11-21T17:13:50;8.90;99.90
42907;DHT22;28552;51.146;6.576;2023-11-21T17:16:51;8.90;99.90
42907;DHT22;28552;51.146;6.576;2023-11-21T17:19:52;8.90;99.90
42907;DHT22;28552;51.146;6.576;2023-11-21T17:22:52;8.80;99.90
42907;DHT22;28552;51.146;6.576;2023-11-21T17:25:56;8.70;99.90
42907;DHT22;28552;51.146;6.576;2023-11-21T17:28:56;8.70;99.90
42907;DHT22;28552;51.146;6.576;2023-11-21T17:31:58;8.60;99.90
42907;DHT22;28552;51.146;6.576;2023-11-21T17:34:59;8.60;99.90
42907;DHT22;28552;51.146;6.576;2023-11-21T17:38:01;8.50;99.90
42907;DHT22;28552;51.146;6.576;2023-11-21T17:41:02;8.40;99.90
42907;DHT22;28552;51.146;6.576;2023-11-21T17:44:03;8.30;99.90
42907;DHT22;28552;51.146;6.576;2023-11-21T17:47:04;8.30;99.90
42907;DHT22;28552;51.146;6.576;2023-11-21T17:50:05;8.30;99.90
42907;DHT22;28552;51.146;6.576;2023-11-21T17:53:06;8.20;99.90
42907;DHT22;28552;51.146;6.576;2023-11-21T17:56:09;8.20;99.90
42907;DHT22;28552;51.146;6.576;2023-11-21T17:59:11;8.10;99.90
42907;DHT22;28552;51.146;6.576;2023-11-21T18:02:16;8.00;99.90
42907;DHT22;28552;51.146;6.576;2023-11-21T18:05:17;7.90;99.90
42907;DHT22;28552;51.146;6.576;2023-11-21T18:08:19;7.70;99.90
42907;DHT22;28552;51.146;6.576;2023-11-21T18:11:20;7.60;99.90
42907;DHT22;28552;51.146;6.576;2023-11-21T18:14:20;7.50;99.90
42907;DHT22;28552;51.146;6.576;2023-11-21T18:17:21;7.40;99.90
42907;DHT22;28552;51.146;6.576;2023-11-21T18:20:22;7.30;99.90
42907;DHT22;28552;51.146;6.576;2023-11-21T18:23:22;7.20;99.90
42907;DHT22;28552;51.146;6.576;2023-11-21T18:26:23;7.10;99.90
42907;DHT22;28552;51.146;6.576;2023-11-21T18:29:23;7.10;99.90
42907;DHT22;28552;51.146;6.576;2023-11-21T18:32:24;7.00;99.90
42907;DHT22;28552;51.146;6.576;2023-11-21T18:35:26;7.00;99.90
42907;DHT22;28552;51.146;6.576;2023-11-21T18:38:29;7.00;99.90
42907;DHT22;28552;51.146;6.576;2023-11-21T18:41:30;6.90;99.90
42907;DHT22;28552;51.146;6.576;2023-11-21T18:44:31;7.00;99.90
42907;DHT22;28552;51.146;6.576;2023-11-21T18:47:32;7.00;99.90
42907;DHT22;28552;51.146;6.576;2023-11-21T18:50:33;7.00;99.90
42907;DHT22;28552;51.146;6.576;2023-11-21T18:53:33;7.00;99.90
42907;DHT22;28552;51.146;6.576;2023-11-21T18:56:35;7.00;99.90
42907;DHT22;28552;51.146;6.576;2023-11-21T18:59:36;6.90;99.90
42907;DHT22;28552;51.146;6.576;2023-11-21T19:02:37;6.90;99.90
42907;DHT22;28552;51.146;6.576;2023-11-21T19:05:37;6.80;99.90
42907;DHT22;28552;51.146;6.576;2023-11-21T19:08:40;6.90;99.90
42907;DHT22;28552;51.146;6.576;2023-11-21T19:11:41;6.90;99.90
42907;DHT22;28552;51.146;6.576;2023-11-21T19:14:42;6.90;99.90
42907;DHT22;28552;51.146;6.576;2023-11-21T19:17:45;6.80;99.90
42907;DHT22;28552;51.146;6.576;2023-11-21T19:20:45;6.70;99.90
42907;DHT22;28552;51.146;6.576;2023-11-21T19:23:46;6.60;99.90
42907;DHT22;28552;51.146;6.576;2023-11-21T19:26:47;6.50;99.90
42907;DHT22;28552;51.146;6.576;2023-11-21T19:29:48;6.40;99.90
42907;DHT22;28552;51.146;6.576;2023-11-21T19:32:49;6.30;99.90
42907;DHT22;28552;51.146;6.576;2023-11-21T19:35:50;6.30;99.90
42907;DHT22;28552;51.146;6.576;2023-11-21T19:38:54;6.30;99.90